Mount Rainier National Park, WA

3:31 PM PDT on September 28, 2016 (GMT -0700)
Ashford | | Change Station

Elev 1935 ft 46.74 °N, 121.97 °W | Updated 18 seconds ago

Clear
Clear
68.7 °F
Feels Like 68.7 °F
N
0.0
Wind Variable Wind from SSW

Today
High -- | Low -- °F
--% Chance of Precip.
Yesterday
High -- | Low -- °F
Precip. -- in
Pressure 30.05 in
Visibility -9999.0 miles
Clouds Clear
Dew Point 55 °F
Humidity 61%
Rainfall 0.00 in
Snow Depth Not available.
7:02 AM 6:51 PM
Waning Crescent, 4% visible
METAR KSMP 282156Z AUTO VRB06KT CLR 16/08 A3008 RMK AO2 SLP176 T01560083 $
Pressure 30.05 in
Visibility -9999.0 miles
Clouds Clear
Dew Point 55 °F
Humidity 61%
Rainfall 0.00 in
Snow Depth Not available.
7:02 AM 6:51 PM
Waning Crescent, 4% visible
METAR KSMP 282156Z AUTO VRB06KT CLR 16/08 A3008 RMK AO2 SLP176 T01560083 $

10-Day Weather Forecast

Almanac

Astronomy

Sep. 28, 2016 Rise Set
Actual Time
Civil Twilight
Nautical Twilight
Astronomical Twilight
Moon
Length of Visible Light
Length of Day
Tomorrow will be .
, % of the Moon is Illuminated

Today's Extremes

State Highs State Lows

Community

WunderPhotos

Upload Photos

1,942,338 photos uploaded!

WunderBlog® & News

Nearby

Air Quality

  Air Quality AQ Index Pollutant
Not available.

Snow Depth

Station Depth Elevation

Earthquake Activity

City Distance Mag. Time & Date
Minimum magnitude displayed is 2.5.

Coastal Water Temperatures

Place Temperature

Stations

Nearby Weather Stations

Station Location Temp. Windchill Dew Point Humidity Wind Precip. Elev Updated Type
                   

Watches & Warnings

There are currently no watches in effect.